Terminal Aerodrome Forecast
Issued by NWS Cleveland, OH

Home | Current Version | Previous Version | Graphics & Text | Print | Product List | Glossary On
Versions: 1 2 3 4 5 6 7 8 9 10 11 12 13 14 15 16 17 18 19 20 21 22 23 24 25 26
000
FTUS41 KCLE 250858 AAB
TAFCLE
TAF AMD
KCLE 250858Z 2509/2612 24006KT P6SM SCT008 OVC015
      TEMPO 2512/2515 SCT015
     FM251500 23011KT P6SM SCT015 BKN045
     FM252000 24012KT P6SM VCSH BKN045
      TEMPO 2522/2602 4SM TSRA BR OVC025CB
     FM260200 24008KT P6SM SCT025 BKN080
     FM260900 28005KT P6SM SCT250=

USA.gov is the U.S. government's official web portal to all federal, state and local government web resources and services.